Archival Weather

Ronald Reagan Washington Ntl

Arlington, Virginia (KDCA)

Report from: Sunday, March 19, 2023 4:52 PM EDT
Current time: Tuesday, February 27, 2024 5:06 AM EST

Current weather – Weather history – Daily summaries
Weather forecast

Temperature6.1°C (43.0°F)
Wind chill1.7°C (35.0°F)
Dew point-12.2°C (10.0°F)
Winds 15 kts (7.7 m/s, 17.3 mph) Northwest (310°)
Wind gusts 23 kts (11.8 m/s, 26.5 mph)
Visibility10 mi. (16.1 km)
Clouds Sky clear
Altimeter30.18 in.Hg (1022 mB)
Relative humidity26 %
Density altitude-1,317 ft. (-402 m)
Sea-level pressure102.2 kPa (1022 mB, 30.17 in.Hg)
Remarks System requires maintenance
Automated weather observing station with precipitation discriminator
Pressure falling, then rising
Flight conditions Visual Meteorological Conditions
Raw dataKDCA 192052Z 31015G23KT 10SM CLR 06/M12 A3018 RMK AO2 SLP218 T00611122 55003 $
An error has occurred. This application may no longer respond until reloaded. Reload 🗙